Socyo — EANN — position and weather

sailwx.info

Track history (hours):
 
Tides and Currents Weather Stations Pressure Air Temp Water Temp Dewpoint Dewpoint Depression Visibility Wind Speed Wind Dir Waves Ship Positions

Socyo

Last reported at 2017-Dec-14 02:02 UTC. Time now 2017-Dec-15 10:04 UTC.
Position N 09°13' W 079°55'.

Length 40 m; draft 5 m.

Type: Fishing. MMSI: 224118000.

Date/timePositionNaut miles runAvg speedWind from/ knotsBaromVisibWave heightAir tempDewpointWater temp
2017-Dec-14 02:02N 09°13' W 079°55'010.7
2017-Dec-14 02:01N 09°13' W 079°55'3 6.7
2017-Dec-14 01:31N 09°16' W 079°55'0 0.6
2017-Dec-14 01:01N 09°16' W 079°55'0 0.4
2017-Dec-14 00:30N 09°17' W 079°55'1 1.4
2017-Dec-14 00:01N 09°17' W 079°55'1 1.9
2017-Dec-13 23:30N 09°18' W 079°55'2 3.2
2017-Dec-13 23:00N 09°20' W 079°55'1 1.7
2017-Dec-13 22:30N 09°21' W 079°55'0 0.2
2017-Dec-13 22:00N 09°21' W 079°55'0 0.0
2017-Dec-13 21:26N 09°21' W 079°55'0 0.0
2017-Dec-13 21:00N 09°21' W 079°55'0 0.0
2017-Dec-13 20:28N 09°21' W 079°55'0 0.0
2017-Dec-13 20:00N 09°21' W 079°55'0 0.0
2017-Dec-13 19:30N 09°21' W 079°55'0 0.0
2017-Dec-13 18:58N 09°21' W 079°55'0 0.0
2017-Dec-13 18:29N 09°21' W 079°55'0 0.0
2017-Dec-13 17:57N 09°21' W 079°55'0 0.0
2017-Dec-13 17:28N 09°21' W 079°55'0 0.0
2017-Dec-13 16:59N 09°21' W 079°55'0 0.0
2017-Dec-13 16:29N 09°21' W 079°55'0 0.0
2017-Dec-13 15:57N 09°21' W 079°55'0 0.0
2017-Dec-13 15:28N 09°21' W 079°55'0 0.0
2017-Dec-13 14:57N 09°21' W 079°55'0 0.0
2017-Dec-13 14:29N 09°21' W 079°55'0 0.0
2017-Dec-13 13:59N 09°21' W 079°55'1 1.8
2017-Dec-13 13:30N 09°21' W 079°55'1 2.2
2017-Dec-13 13:00N 09°22' W 079°55'0 0.0
2017-Dec-13 12:28N 09°22' W 079°55'0 0.0
2017-Dec-13 12:00N 09°22' W 079°55'0 0.0
2017-Dec-13 11:29N 09°22' W 079°55'0 0.0
2017-Dec-13 10:55N 09°22' W 079°55'0 0.1
2017-Dec-13 10:30N 09°22' W 079°55'0 0.0
2017-Dec-13 09:59N 09°22' W 079°55'0 0.0
2017-Dec-13 09:30N 09°22' W 079°55'0 0.0
2017-Dec-13 08:58N 09°22' W 079°55'0 0.0
2017-Dec-13 08:29N 09°22' W 079°55'0 0.0
2017-Dec-13 07:59N 09°22' W 079°55'0 0.0
2017-Dec-13 07:29N 09°22' W 079°55'0 0.0
2017-Dec-13 06:59N 09°22' W 079°55'0 0.0
2017-Dec-13 06:29N 09°22' W 079°55'0 0.0
2017-Dec-13 05:56N 09°22' W 079°55'0 0.0
2017-Dec-13 05:28N 09°22' W 079°55'0 0.0
2017-Dec-13 04:56N 09°22' W 079°55'0 0.0
2017-Dec-13 04:30N 09°22' W 079°55'0 0.0
2017-Dec-13 03:56N 09°22' W 079°55'0 0.0
2017-Dec-13 03:26N 09°22' W 079°55'0 0.0
2017-Dec-13 03:00N 09°22' W 079°55'0 0.0
2017-Dec-13 02:27N 09°22' W 079°55'0 0.0
2017-Dec-13 01:59N 09°22' W 079°55'0 0.0
2017-Dec-13 01:26N 09°22' W 079°55'0 0.0
2017-Dec-13 00:59N 09°22' W 079°55'0 0.0
2017-Dec-13 00:29N 09°22' W 079°55'0 0.0
2017-Dec-12 23:59N 09°22' W 079°55'0 0.0
2017-Dec-12 23:30N 09°22' W 079°55'0 0.0
2017-Dec-12 23:00N 09°22' W 079°55'0 0.0
2017-Dec-12 22:28N 09°22' W 079°55'0 0.0
2017-Dec-12 21:59N 09°22' W 079°55'0 0.0
2017-Dec-12 21:28N 09°22' W 079°55'0 0.0
2017-Dec-12 20:58N 09°22' W 079°55'0 0.0
2017-Dec-12 20:30N 09°22' W 079°55'0 0.1
2017-Dec-12 20:00N 09°22' W 079°55'0 0.4
2017-Dec-12 19:30N 09°22' W 079°55'0 0.0
2017-Dec-12 19:00N 09°22' W 079°55'0 0.0
2017-Dec-12 18:30N 09°22' W 079°55'0 0.2
2017-Dec-12 18:00N 09°22' W 079°55'0 0.0
2017-Dec-12 17:30N 09°22' W 079°55'0 0.0
2017-Dec-12 17:00N 09°22' W 079°55'0 0.0
2017-Dec-12 16:30N 09°22' W 079°55'0 0.0
2017-Dec-12 16:00N 09°22' W 079°55'0 0.0
2017-Dec-12 15:31N 09°22' W 079°55'0 0.0
2017-Dec-12 15:00N 09°22' W 079°55'0 0.0
2017-Dec-12 14:30N 09°22' W 079°55'0 0.0
2017-Dec-12 14:00N 09°22' W 079°55'0 0.1
2017-Dec-12 13:31N 09°22' W 079°55'3 5.4
2017-Dec-12 13:00N 09°25' W 079°55'1 2.8
2017-Dec-12 12:30N 09°25' W 079°56'0 0.9
2017-Dec-12 12:00N 09°25' W 079°56'0 0.6
2017-Dec-12 11:30N 09°25' W 079°56'0 0.5
2017-Dec-12 11:00N 09°25' W 079°55'3 6.2
2017-Dec-12 10:30N 09°27' W 079°54'3 5.9
2017-Dec-12 09:59N 09°30' W 079°53'3 6.1
2017-Dec-12 09:30N 09°33' W 079°52'4 7.1
2017-Dec-12 08:59N 09°36' W 079°50'  
Track history (hours):
 
Tides and Currents Weather Stations Pressure Air Temp Water Temp Dewpoint Dewpoint Depression Visibility Wind Speed Wind Dir Waves Ship Positions

Socyo

Last reported at 2017-Dec-14 02:02 UTC. Time now 2017-Dec-15 10:04 UTC.
Position N 09°13' W 079°55'.

Length 40 m; draft 5 m.

Type: Fishing. MMSI: 224118000.

Date/timePositionNaut miles runAvg speedWind from/ knotsBaromVisibWave heightAir tempDewpointWater temp
2017-Dec-14 02:02N 09°13' W 079°55'010.7
2017-Dec-14 02:01N 09°13' W 079°55'3 6.7
2017-Dec-14 01:31N 09°16' W 079°55'0 0.6
2017-Dec-14 01:01N 09°16' W 079°55'0 0.4
2017-Dec-14 00:30N 09°17' W 079°55'1 1.4
2017-Dec-14 00:01N 09°17' W 079°55'1 1.9
2017-Dec-13 23:30N 09°18' W 079°55'2 3.2
2017-Dec-13 23:00N 09°20' W 079°55'1 1.7
2017-Dec-13 22:30N 09°21' W 079°55'0 0.2
2017-Dec-13 22:00N 09°21' W 079°55'0 0.0
2017-Dec-13 21:26N 09°21' W 079°55'0 0.0
2017-Dec-13 21:00N 09°21' W 079°55'0 0.0
2017-Dec-13 20:28N 09°21' W 079°55'0 0.0
2017-Dec-13 20:00N 09°21' W 079°55'0 0.0
2017-Dec-13 19:30N 09°21' W 079°55'0 0.0
2017-Dec-13 18:58N 09°21' W 079°55'0 0.0
2017-Dec-13 18:29N 09°21' W 079°55'0 0.0
2017-Dec-13 17:57N 09°21' W 079°55'0 0.0
2017-Dec-13 17:28N 09°21' W 079°55'0 0.0
2017-Dec-13 16:59N 09°21' W 079°55'0 0.0
2017-Dec-13 16:29N 09°21' W 079°55'0 0.0
2017-Dec-13 15:57N 09°21' W 079°55'0 0.0
2017-Dec-13 15:28N 09°21' W 079°55'0 0.0
2017-Dec-13 14:57N 09°21' W 079°55'0 0.0
2017-Dec-13 14:29N 09°21' W 079°55'0 0.0
2017-Dec-13 13:59N 09°21' W 079°55'1 1.8
2017-Dec-13 13:30N 09°21' W 079°55'1 2.2
2017-Dec-13 13:00N 09°22' W 079°55'0 0.0
2017-Dec-13 12:28N 09°22' W 079°55'0 0.0
2017-Dec-13 12:00N 09°22' W 079°55'0 0.0
2017-Dec-13 11:29N 09°22' W 079°55'0 0.0
2017-Dec-13 10:55N 09°22' W 079°55'0 0.1
2017-Dec-13 10:30N 09°22' W 079°55'0 0.0
2017-Dec-13 09:59N 09°22' W 079°55'0 0.0
2017-Dec-13 09:30N 09°22' W 079°55'0 0.0
2017-Dec-13 08:58N 09°22' W 079°55'0 0.0
2017-Dec-13 08:29N 09°22' W 079°55'0 0.0
2017-Dec-13 07:59N 09°22' W 079°55'0 0.0
2017-Dec-13 07:29N 09°22' W 079°55'0 0.0
2017-Dec-13 06:59N 09°22' W 079°55'0 0.0
2017-Dec-13 06:29N 09°22' W 079°55'0 0.0
2017-Dec-13 05:56N 09°22' W 079°55'0 0.0
2017-Dec-13 05:28N 09°22' W 079°55'0 0.0
2017-Dec-13 04:56N 09°22' W 079°55'0 0.0
2017-Dec-13 04:30N 09°22' W 079°55'0 0.0
2017-Dec-13 03:56N 09°22' W 079°55'0 0.0
2017-Dec-13 03:26N 09°22' W 079°55'0 0.0
2017-Dec-13 03:00N 09°22' W 079°55'0 0.0
2017-Dec-13 02:27N 09°22' W 079°55'0 0.0
2017-Dec-13 01:59N 09°22' W 079°55'0 0.0
2017-Dec-13 01:26N 09°22' W 079°55'0 0.0
2017-Dec-13 00:59N 09°22' W 079°55'0 0.0
2017-Dec-13 00:29N 09°22' W 079°55'0 0.0
2017-Dec-12 23:59N 09°22' W 079°55'0 0.0
2017-Dec-12 23:30N 09°22' W 079°55'0 0.0
2017-Dec-12 23:00N 09°22' W 079°55'0 0.0
2017-Dec-12 22:28N 09°22' W 079°55'0 0.0
2017-Dec-12 21:59N 09°22' W 079°55'0 0.0
2017-Dec-12 21:28N 09°22' W 079°55'0 0.0
2017-Dec-12 20:58N 09°22' W 079°55'0 0.0
2017-Dec-12 20:30N 09°22' W 079°55'0 0.1
2017-Dec-12 20:00N 09°22' W 079°55'0 0.4
2017-Dec-12 19:30N 09°22' W 079°55'0 0.0
2017-Dec-12 19:00N 09°22' W 079°55'0 0.0
2017-Dec-12 18:30N 09°22' W 079°55'0 0.2
2017-Dec-12 18:00N 09°22' W 079°55'0 0.0
2017-Dec-12 17:30N 09°22' W 079°55'0 0.0
2017-Dec-12 17:00N 09°22' W 079°55'0 0.0
2017-Dec-12 16:30N 09°22' W 079°55'0 0.0
2017-Dec-12 16:00N 09°22' W 079°55'0 0.0
2017-Dec-12 15:31N 09°22' W 079°55'0 0.0
2017-Dec-12 15:00N 09°22' W 079°55'0 0.0
2017-Dec-12 14:30N 09°22' W 079°55'0 0.0
2017-Dec-12 14:00N 09°22' W 079°55'0 0.1
2017-Dec-12 13:31N 09°22' W 079°55'3 5.4
2017-Dec-12 13:00N 09°25' W 079°55'1 2.8
2017-Dec-12 12:30N 09°25' W 079°56'0 0.9
2017-Dec-12 12:00N 09°25' W 079°56'0 0.6
2017-Dec-12 11:30N 09°25' W 079°56'0 0.5
2017-Dec-12 11:00N 09°25' W 079°55'3 6.2
2017-Dec-12 10:30N 09°27' W 079°54'3 5.9
2017-Dec-12 09:59N 09°30' W 079°53'3 6.1
2017-Dec-12 09:30N 09°33' W 079°52'4 7.1
2017-Dec-12 08:59N 09°36' W 079°50'  

Dump ship's entire track history